This is the latest recevied weather packets stored in our database for station/object N3SBK. If no packets are shown the sender has not sent any weather packets the latest 10 day(s).
| Time | Temp. | Humidity | Pressure | Rain* | Wind** | Luminosity | Snow |
|---|---|---|---|---|---|---|---|
| 1777562493 | 8.33° C | 93% | 1002.2 hPa | 0 mm | - | 56 W/m² | - |
| 1777562190 | 8.33° C | 94% | 1002 hPa | 0 mm | - | 92 W/m² | - |
| 1777561888 | 7.78° C | 93% | 1002 hPa | 1.27 mm | - | 120 W/m² | - |
| 1777561585 | 7.78° C | 93% | 1002.1 hPa | 1.27 mm | - | 122 W/m² | - |
| 1777561281 | 7.78° C | 93% | 1002.1 hPa | 0 mm | - | 92 W/m² | - |
| 1777560980 | 7.78° C | 93% | 1002 hPa | 1.78 mm | - | 112 W/m² | - |
| 1777560676 | 7.78° C | 92% | 1002 hPa | 3.05 mm | - | 103 W/m² | - |
| 1777560374 | 7.78° C | 90% | 1001.9 hPa | 4.32 mm | - | 115 W/m² | - |
| 1777560072 | 8.33° C | 88% | 1001.7 hPa | 1.27 mm | - | 44 W/m² | - |
| 1777559768 | 8.89° C | 86% | 1001.8 hPa | 0 mm | - | 73 W/m² | - |
| 1777559465 | 8.89° C | 85% | 1001.5 hPa | 0 mm | - | 82 W/m² | - |
| 1777559162 | 8.89° C | 83% | 1001.2 hPa | 0 mm | - | 56 W/m² | - |
| 1777558861 | 8.89° C | 82% | 1001.3 hPa | 0 mm | - | 41 W/m² | - |
| 1777558557 | 8.89° C | 82% | 1001.1 hPa | 0 mm | - | 58 W/m² | - |
| 1777558253 | 8.89° C | 82% | 1001.3 hPa | 0 mm | - | 72 W/m² | - |
| 1777557949 | 8.89° C | 83% | 1001.3 hPa | 0 mm | - | 51 W/m² | - |
| 1777557647 | 8.89° C | 82% | 1001.1 hPa | 0 mm | - | 58 W/m² | - |
| 1777557343 | 8.89° C | 82% | 1001 hPa | 0 mm | - | 121 W/m² | - |
| 1777557039 | 8.89° C | 82% | 1001.1 hPa | 0 mm | - | 84 W/m² | - |
| 1777556735 | 8.89° C | 82% | 1001.2 hPa | 0 mm | - | 66 W/m² | - |
| 1777556431 | 8.89° C | 81% | 1001 hPa | 0 mm | - | 64 W/m² | - |
| 1777556126 | 9.44° C | 82% | 1001.1 hPa | 0 mm | - | 85 W/m² | - |
| 1777555822 | 8.89° C | 84% | 1001 hPa | 0 mm | - | 107 W/m² | - |
| 1777555518 | 8.89° C | 83% | 1001 hPa | 0 mm | - | 99 W/m² | - |
| 1777555214 | 8.89° C | 84% | 1001.2 hPa | 0 mm | - | 103 W/m² | - |
* Rain latest hour (hover to see other rain measurements)
** Current wind speed in m/s (hover to see current wind gust speed)